sensor_id;sensor_type;location;lat;lon;timestamp;pressure;altitude;pressure_sealevel;temperature;humidity
38716;BME280;24833;49.324;8.694;2022-11-15T00:01:42;99552.56;;;10.90;84.96
38716;BME280;24833;49.324;8.694;2022-11-15T00:04:28;99555.03;;;10.92;84.95
38716;BME280;24833;49.324;8.694;2022-11-15T00:07:14;99547.22;;;10.90;85.33
38716;BME280;24833;49.324;8.694;2022-11-15T00:10:19;99550.72;;;10.91;85.09
38716;BME280;24833;49.324;8.694;2022-11-15T00:13:07;99553.38;;;10.91;84.71
38716;BME280;24833;49.324;8.694;2022-11-15T00:15:54;99537.53;;;10.89;85.45
38716;BME280;24833;49.324;8.694;2022-11-15T00:18:41;99542.69;;;10.91;84.78
38716;BME280;24833;49.324;8.694;2022-11-15T00:21:35;99545.97;;;10.93;85.17
38716;BME280;24833;49.324;8.694;2022-11-15T00:24:20;99542.69;;;10.91;85.19
38716;BME280;24833;49.324;8.694;2022-11-15T00:27:06;99531.19;;;10.90;85.41
38716;BME280;24833;49.324;8.694;2022-11-15T00:29:53;99531.19;;;10.90;85.37
38716;BME280;24833;49.324;8.694;2022-11-15T00:32:38;99542.88;;;10.89;85.36
38716;BME280;24833;49.324;8.694;2022-11-15T00:35:24;99529.72;;;10.88;85.17
38716;BME280;24833;49.324;8.694;2022-11-15T00:38:10;99529.72;;;10.88;85.14
38716;BME280;24833;49.324;8.694;2022-11-15T00:40:55;99524.38;;;10.88;85.26
38716;BME280;24833;49.324;8.694;2022-11-15T00:43:41;99520.28;;;10.85;84.58
38716;BME280;24833;49.324;8.694;2022-11-15T00:46:28;99514.13;;;10.85;84.78
38716;BME280;24833;49.324;8.694;2022-11-15T00:49:14;99513.50;;;10.83;85.10
38716;BME280;24833;49.324;8.694;2022-11-15T00:51:59;99514.72;;;10.80;84.67
38716;BME280;24833;49.324;8.694;2022-11-15T00:54:48;99518.63;;;10.78;84.87
38716;BME280;24833;49.324;8.694;2022-11-15T00:57:34;99512.66;;;10.76;84.43
38716;BME280;24833;49.324;8.694;2022-11-15T01:00:19;99513.47;;;10.76;84.73
38716;BME280;24833;49.324;8.694;2022-11-15T01:03:05;99512.66;;;10.76;84.90
38716;BME280;24833;49.324;8.694;2022-11-15T01:05:50;99500.53;;;10.73;84.86
38716;BME280;24833;49.324;8.694;2022-11-15T01:08:36;99502.59;;;10.71;84.48
38716;BME280;24833;49.324;8.694;2022-11-15T01:11:22;99495.81;;;10.69;84.59
38716;BME280;24833;49.324;8.694;2022-11-15T01:14:07;99491.69;;;10.66;84.45
38716;BME280;24833;49.324;8.694;2022-11-15T01:16:53;99498.06;;;10.65;84.61
38716;BME280;24833;49.324;8.694;2022-11-15T01:19:39;99495.41;;;10.65;84.53
38716;BME280;24833;49.324;8.694;2022-11-15T01:22:24;99495.41;;;10.65;84.37
38716;BME280;24833;49.324;8.694;2022-11-15T01:25:09;99493.56;;;10.66;84.21
38716;BME280;24833;49.324;8.694;2022-11-15T01:27:55;99494.16;;;10.68;84.91
38716;BME280;24833;49.324;8.694;2022-11-15T01:30:40;99482.44;;;10.69;84.59
38716;BME280;24833;49.324;8.694;2022-11-15T01:33:27;99481.41;;;10.70;84.39
38716;BME280;24833;49.324;8.694;2022-11-15T01:36:20;99484.72;;;10.72;84.28
38716;BME280;24833;49.324;8.694;2022-11-15T01:39:08;99480.00;;;10.74;84.74
38716;BME280;24833;49.324;8.694;2022-11-15T01:41:54;99477.31;;;10.74;84.35
38716;BME280;24833;49.324;8.694;2022-11-15T01:44:48;99471.16;;;10.73;84.45
38716;BME280;24833;49.324;8.694;2022-11-15T01:47:40;99467.88;;;10.71;84.28
38716;BME280;24833;49.324;8.694;2022-11-15T01:50:31;99467.06;;;10.71;84.16
38716;BME280;24833;49.324;8.694;2022-11-15T01:53:19;99462.53;;;10.71;84.01
38716;BME280;24833;49.324;8.694;2022-11-15T01:56:10;99459.66;;;10.73;84.25
38716;BME280;24833;49.324;8.694;2022-11-15T01:58:59;99459.44;;;10.74;84.41
38716;BME280;24833;49.324;8.694;2022-11-15T02:01:47;99460.91;;;10.77;84.28
38716;BME280;24833;49.324;8.694;2022-11-15T02:04:43;99457.22;;;10.78;84.24
38716;BME280;24833;49.324;8.694;2022-11-15T02:07:31;99460.50;;;10.80;84.24
38716;BME280;24833;49.324;8.694;2022-11-15T02:10:22;99446.09;;;10.81;84.37
38716;BME280;24833;49.324;8.694;2022-11-15T02:13:09;99438.69;;;10.83;84.29
38716;BME280;24833;49.324;8.694;2022-11-15T02:16:14;99439.94;;;10.87;84.28
38716;BME280;24833;49.324;8.694;2022-11-15T02:22:46;99427.63;;;10.99;84.21
38716;BME280;24833;49.324;8.694;2022-11-15T02:26:15;99429.03;;;11.02;83.91
38716;BME280;24833;49.324;8.694;2022-11-15T02:29:11;99425.16;;;11.04;84.28
38716;BME280;24833;49.324;8.694;2022-11-15T02:32:26;99424.34;;;11.04;84.04
38716;BME280;24833;49.324;8.694;2022-11-15T02:35:29;99419.00;;;11.04;83.52
38716;BME280;24833;49.324;8.694;2022-11-15T02:39:01;99419.81;;;11.04;84.03
38716;BME280;24833;49.324;8.694;2022-11-15T02:42:02;99409.13;;;11.04;83.72
38716;BME280;24833;49.324;8.694;2022-11-15T02:44:49;99402.97;;;11.04;84.22
38716;BME280;24833;49.324;8.694;2022-11-15T02:47:43;99411.97;;;11.03;83.31
38716;BME280;24833;49.324;8.694;2022-11-15T02:50:30;99398.00;;;11.01;83.95
38716;BME280;24833;49.324;8.694;2022-11-15T02:53:17;99403.34;;;11.01;83.95
38716;BME280;24833;49.324;8.694;2022-11-15T02:56:07;99394.72;;;10.99;84.09
38716;BME280;24833;49.324;8.694;2022-11-15T02:59:17;99396.78;;;10.97;83.66
38716;BME280;24833;49.324;8.694;2022-11-15T03:02:31;99390.00;;;10.94;83.48
38716;BME280;24833;49.324;8.694;2022-11-15T03:05:53;99388.38;;;10.93;83.51
38716;BME280;24833;49.324;8.694;2022-11-15T03:12:28;99378.72;;;10.92;83.65
38716;BME280;24833;49.324;8.694;2022-11-15T03:15:23;99377.06;;;10.91;83.58
38716;BME280;24833;49.324;8.694;2022-11-15T03:18:32;99381.59;;;10.90;83.38
38716;BME280;24833;49.324;8.694;2022-11-15T03:21:19;99365.56;;;10.90;83.71
38716;BME280;24833;49.324;8.694;2022-11-15T03:24:08;99374.59;;;10.89;83.70
38716;BME280;24833;49.324;8.694;2022-11-15T03:26:55;99369.25;;;10.89;83.73
38716;BME280;24833;49.324;8.694;2022-11-15T03:29:49;99375.44;;;10.90;83.68
38716;BME280;24833;49.324;8.694;2022-11-15T03:32:49;99373.78;;;10.89;83.32
38716;BME280;24833;49.324;8.694;2022-11-15T03:35:43;99372.13;;;10.88;83.27
38716;BME280;24833;49.324;8.694;2022-11-15T03:38:32;99372.94;;;10.88;83.33
38716;BME280;24833;49.324;8.694;2022-11-15T03:41:43;99376.66;;;10.87;83.34
38716;BME280;24833;49.324;8.694;2022-11-15T03:47:54;99371.31;;;10.87;83.62
38716;BME280;24833;49.324;8.694;2022-11-15T03:50:44;99370.28;;;10.88;83.49
38716;BME280;24833;49.324;8.694;2022-11-15T03:53:31;99367.59;;;10.88;83.74
38716;BME280;24833;49.324;8.694;2022-11-15T03:56:17;99368.44;;;10.89;83.41
38716;BME280;24833;49.324;8.694;2022-11-15T03:59:03;99370.09;;;10.90;83.21
38716;BME280;24833;49.324;8.694;2022-11-15T04:01:49;99371.31;;;10.87;83.25
38716;BME280;24833;49.324;8.694;2022-11-15T04:04:34;99366.78;;;10.88;83.31
38716;BME280;24833;49.324;8.694;2022-11-15T04:07:19;99366.19;;;10.86;83.21
38716;BME280;24833;49.324;8.694;2022-11-15T04:10:06;99377.47;;;10.88;83.69
38716;BME280;24833;49.324;8.694;2022-11-15T04:12:52;99366.78;;;10.88;83.17
38716;BME280;24833;49.324;8.694;2022-11-15T04:15:38;99365.75;;;10.89;83.50
38716;BME280;24833;49.324;8.694;2022-11-15T04:18:23;99374.59;;;10.89;83.52
38716;BME280;24833;49.324;8.694;2022-11-15T04:21:09;99369.88;;;10.91;83.55
38716;BME280;24833;49.324;8.694;2022-11-15T04:24:13;99362.69;;;10.92;83.40
38716;BME280;24833;49.324;8.694;2022-11-15T04:26:59;99361.06;;;10.91;83.54
38716;BME280;24833;49.324;8.694;2022-11-15T04:29:45;99358.38;;;10.91;83.51
38716;BME280;24833;49.324;8.694;2022-11-15T04:32:30;99365.97;;;10.94;83.57
38716;BME280;24833;49.324;8.694;2022-11-15T04:35:16;99360.63;;;10.94;83.14
38716;BME280;24833;49.324;8.694;2022-11-15T04:38:04;99368.22;;;10.97;83.60
38716;BME280;24833;49.324;8.694;2022-11-15T04:40:50;99354.03;;;10.97;82.92
38716;BME280;24833;49.324;8.694;2022-11-15T04:43:35;99352.00;;;10.99;82.96
38716;BME280;24833;49.324;8.694;2022-11-15T04:46:22;99341.91;;;11.01;83.14
38716;BME280;24833;49.324;8.694;2022-11-15T04:49:08;99349.69;;;11.02;83.42
38716;BME280;24833;49.324;8.694;2022-11-15T04:51:54;99354.00;;;11.03;83.23
38716;BME280;24833;49.324;8.694;2022-11-15T04:54:40;99351.97;;;11.05;83.19
38716;BME280;24833;49.324;8.694;2022-11-15T04:57:27;99341.28;;;11.05;82.97
38716;BME280;24833;49.324;8.694;2022-11-15T05:00:15;99335.50;;;11.08;83.35
38716;BME280;24833;49.324;8.694;2022-11-15T05:03:01;99333.47;;;11.10;83.50
38716;BME280;24833;49.324;8.694;2022-11-15T05:06:05;99321.75;;;11.11;83.04
38716;BME280;24833;49.324;8.694;2022-11-15T05:08:52;99325.63;;;11.15;83.31
38716;BME280;24833;49.324;8.694;2022-11-15T05:11:37;99324.41;;;11.18;83.59
38716;BME280;24833;49.324;8.694;2022-11-15T05:14:23;99324.41;;;11.18;83.31
38716;BME280;24833;49.324;8.694;2022-11-15T05:17:08;99322.94;;;11.15;82.86
38716;BME280;24833;49.324;8.694;2022-11-15T05:19:54;99330.97;;;11.15;83.08
38716;BME280;24833;49.324;8.694;2022-11-15T05:22:40;99329.53;;;11.13;83.04
38716;BME280;24833;49.324;8.694;2022-11-15T05:25:25;99325.25;;;11.12;82.81
38716;BME280;24833;49.324;8.694;2022-11-15T05:28:12;99330.38;;;11.13;83.14
38716;BME280;24833;49.324;8.694;2022-11-15T05:31:06;99322.78;;;11.10;82.68
38716;BME280;24833;49.324;8.694;2022-11-15T05:33:52;99332.03;;;11.08;82.92
38716;BME280;24833;49.324;8.694;2022-11-15T05:36:44;99321.53;;;11.06;82.74
38716;BME280;24833;49.324;8.694;2022-11-15T05:39:31;99322.59;;;11.05;82.56
38716;BME280;24833;49.324;8.694;2022-11-15T05:42:16;99327.28;;;11.03;83.19
38716;BME280;24833;49.324;8.694;2022-11-15T05:45:05;99330.19;;;11.02;83.33
38716;BME280;24833;49.324;8.694;2022-11-15T05:47:52;99326.09;;;10.99;82.82
38716;BME280;24833;49.324;8.694;2022-11-15T05:50:43;99333.06;;;11.00;83.02
38716;BME280;24833;49.324;8.694;2022-11-15T05:53:30;99336.34;;;11.02;83.25
38716;BME280;24833;49.324;8.694;2022-11-15T05:56:17;99329.38;;;11.01;82.88
38716;BME280;24833;49.324;8.694;2022-11-15T05:59:02;99324.63;;;11.03;83.12
38716;BME280;24833;49.324;8.694;2022-11-15T06:01:48;99331.19;;;11.07;83.70
38716;BME280;24833;49.324;8.694;2022-11-15T06:04:35;99338.81;;;11.10;83.59
38716;BME280;24833;49.324;8.694;2022-11-15T06:07:20;99332.44;;;11.11;83.49
38716;BME280;24833;49.324;8.694;2022-11-15T06:10:06;99333.03;;;11.13;83.29
38716;BME280;24833;49.324;8.694;2022-11-15T06:12:59;99325.03;;;11.13;83.71
38716;BME280;24833;49.324;8.694;2022-11-15T06:15:45;99321.91;;;11.16;83.32
38716;BME280;24833;49.324;8.694;2022-11-15T06:18:34;99326.25;;;11.17;83.38
38716;BME280;24833;49.324;8.694;2022-11-15T06:21:20;99333.22;;;11.18;83.17
38716;BME280;24833;49.324;8.694;2022-11-15T06:24:07;99328.09;;;11.17;82.97
38716;BME280;24833;49.324;8.694;2022-11-15T06:26:53;99322.75;;;11.17;83.28
38716;BME280;24833;49.324;8.694;2022-11-15T06:29:38;99323.78;;;11.16;83.41
38716;BME280;24833;49.324;8.694;2022-11-15T06:32:24;99334.69;;;11.14;82.72
38716;BME280;24833;49.324;8.694;2022-11-15T06:35:09;99331.41;;;11.12;83.41
38716;BME280;24833;49.324;8.694;2022-11-15T06:37:55;99334.28;;;11.11;82.97
38716;BME280;24833;49.324;8.694;2022-11-15T06:40:41;99327.72;;;11.07;83.18
38716;BME280;24833;49.324;8.694;2022-11-15T06:43:27;99325.84;;;11.07;83.35
38716;BME280;24833;49.324;8.694;2022-11-15T06:46:13;99325.25;;;11.05;83.00
38716;BME280;24833;49.324;8.694;2022-11-15T06:48:58;99325.25;;;11.05;82.96
38716;BME280;24833;49.324;8.694;2022-11-15T06:51:48;99325.84;;;11.07;83.23
38716;BME280;24833;49.324;8.694;2022-11-15T06:54:34;99321.94;;;11.03;83.00
38716;BME280;24833;49.324;8.694;2022-11-15T06:57:19;99321.56;;;11.00;83.25
38716;BME280;24833;49.324;8.694;2022-11-15T07:00:05;99316.63;;;10.97;82.98
38716;BME280;24833;49.324;8.694;2022-11-15T07:02:51;99308.44;;;10.98;83.18
38716;BME280;24833;49.324;8.694;2022-11-15T07:05:37;99318.28;;;10.98;82.99
38716;BME280;24833;49.324;8.694;2022-11-15T07:08:24;99331.44;;;10.99;83.19
38716;BME280;24833;49.324;8.694;2022-11-15T07:11:11;99335.97;;;10.99;83.63
38716;BME280;24833;49.324;8.694;2022-11-15T07:13:56;99338.41;;;11.00;83.17
38716;BME280;24833;49.324;8.694;2022-11-15T07:16:42;99343.75;;;11.00;83.13
38716;BME280;24833;49.324;8.694;2022-11-15T07:19:27;99345.41;;;11.01;83.45
38716;BME280;24833;49.324;8.694;2022-11-15T07:22:13;99344.19;;;11.04;83.43
38716;BME280;24833;49.324;8.694;2022-11-15T07:24:58;99343.13;;;11.05;83.62
38716;BME280;24833;49.324;8.694;2022-11-15T07:27:57;99342.09;;;11.06;83.71
38716;BME280;24833;49.324;8.694;2022-11-15T07:30:43;99339.44;;;11.06;83.59
38716;BME280;24833;49.324;8.694;2022-11-15T07:33:30;99351.53;;;11.08;83.52
38716;BME280;24833;49.324;8.694;2022-11-15T07:36:17;99341.66;;;11.09;83.45
38716;BME280;24833;49.324;8.694;2022-11-15T07:39:02;99344.16;;;11.10;83.50
38716;BME280;24833;49.324;8.694;2022-11-15T07:41:48;99350.72;;;11.08;83.44
38716;BME280;24833;49.324;8.694;2022-11-15T07:44:34;99349.09;;;11.07;82.97
38716;BME280;24833;49.324;8.694;2022-11-15T07:47:20;99354.00;;;11.03;82.75
38716;BME280;24833;49.324;8.694;2022-11-15T07:50:06;99342.31;;;11.04;83.13
38716;BME280;24833;49.324;8.694;2022-11-15T07:52:56;99345.00;;;11.04;83.61
38716;BME280;24833;49.324;8.694;2022-11-15T07:55:42;99346.19;;;11.08;83.77
38716;BME280;24833;49.324;8.694;2022-11-15T07:58:28;99343.72;;;11.13;83.50
38716;BME280;24833;49.324;8.694;2022-11-15T08:01:13;99348.22;;;11.19;83.92
38716;BME280;24833;49.324;8.694;2022-11-15T08:03:59;99344.94;;;11.24;83.35
38716;BME280;24833;49.324;8.694;2022-11-15T08:06:45;99344.28;;;11.29;83.96
38716;BME280;24833;49.324;8.694;2022-11-15T08:09:31;99344.69;;;11.32;83.61
38716;BME280;24833;49.324;8.694;2022-11-15T08:12:16;99339.56;;;11.37;83.52
38716;BME280;24833;49.324;8.694;2022-11-15T08:15:03;99342.81;;;11.39;83.44
38716;BME280;24833;49.324;8.694;2022-11-15T08:17:56;99337.47;;;11.39;83.87
38716;BME280;24833;49.324;8.694;2022-11-15T08:20:43;99332.53;;;11.36;83.16
38716;BME280;24833;49.324;8.694;2022-11-15T08:23:29;99328.84;;;11.37;83.90
38716;BME280;24833;49.324;8.694;2022-11-15T08:26:15;99333.38;;;11.37;83.74
38716;BME280;24833;49.324;8.694;2022-11-15T08:29:00;99333.38;;;11.37;84.07
38716;BME280;24833;49.324;8.694;2022-11-15T08:31:46;99322.88;;;11.35;83.83
38716;BME280;24833;49.324;8.694;2022-11-15T08:34:32;99326.38;;;11.36;83.60
38716;BME280;24833;49.324;8.694;2022-11-15T08:37:17;99318.16;;;11.37;83.92
38716;BME280;24833;49.324;8.694;2022-11-15T08:40:04;99318.75;;;11.39;83.70
38716;BME280;24833;49.324;8.694;2022-11-15T08:42:50;99306.81;;;11.42;83.76
38716;BME280;24833;49.324;8.694;2022-11-15T08:45:36;99304.13;;;11.42;83.45
38716;BME280;24833;49.324;8.694;2022-11-15T08:48:22;99299.41;;;11.44;84.06
38716;BME280;24833;49.324;8.694;2022-11-15T08:51:07;99306.19;;;11.46;83.69
38716;BME280;24833;49.324;8.694;2022-11-15T08:53:53;99313.16;;;11.48;83.89
38716;BME280;24833;49.324;8.694;2022-11-15T08:56:38;99303.28;;;11.48;84.23
38716;BME280;24833;49.324;8.694;2022-11-15T08:59:23;99303.88;;;11.50;83.67
38716;BME280;24833;49.324;8.694;2022-11-15T09:02:14;99304.94;;;11.49;83.73
38716;BME280;24833;49.324;8.694;2022-11-15T09:05:00;99306.19;;;11.46;83.49
38716;BME280;24833;49.324;8.694;2022-11-15T09:07:45;99308.44;;;11.43;82.97
38716;BME280;24833;49.324;8.694;2022-11-15T09:10:31;99311.56;;;11.40;83.18
38716;BME280;24833;49.324;8.694;2022-11-15T09:13:17;99311.38;;;11.35;83.23
38716;BME280;24833;49.324;8.694;2022-11-15T09:16:03;99303.78;;;11.32;82.88
38716;BME280;24833;49.324;8.694;2022-11-15T09:18:49;99311.81;;;11.32;83.14
38716;BME280;24833;49.324;8.694;2022-11-15T09:21:35;99308.31;;;11.31;83.26
38716;BME280;24833;49.324;8.694;2022-11-15T09:24:20;99308.09;;;11.33;83.75
38716;BME280;24833;49.324;8.694;2022-11-15T09:27:06;99310.56;;;11.34;83.75
38716;BME280;24833;49.324;8.694;2022-11-15T09:29:52;99299.22;;;11.39;84.17
38716;BME280;24833;49.324;8.694;2022-11-15T09:32:37;99302.50;;;11.41;84.00
38716;BME280;24833;49.324;8.694;2022-11-15T09:35:24;99304.13;;;11.42;83.57
38716;BME280;24833;49.324;8.694;2022-11-15T09:38:09;99299.19;;;11.45;83.65
38716;BME280;24833;49.324;8.694;2022-11-15T09:47:59;99293.41;;;11.49;83.75
38716;BME280;24833;49.324;8.694;2022-11-15T09:50:52;99292.59;;;11.48;83.11
38716;BME280;24833;49.324;8.694;2022-11-15T09:56:48;99295.06;;;11.50;83.42
38716;BME280;24833;49.324;8.694;2022-11-15T10:05:00;99277.34;;;11.55;83.47
38716;BME280;24833;49.324;8.694;2022-11-15T10:07:40;99279.38;;;11.60;84.17
38716;BME280;24833;49.324;8.694;2022-11-15T10:10:44;99277.31;;;11.62;83.25
38716;BME280;24833;49.324;8.694;2022-11-15T10:13:20;99276.66;;;11.66;84.44
38716;BME280;24833;49.324;8.694;2022-11-15T10:15:49;99272.53;;;11.70;83.58
38716;BME280;24833;49.324;8.694;2022-11-15T10:19:07;99282.56;;;11.75;84.50
38716;BME280;24833;49.324;8.694;2022-11-15T10:24:35;99282.16;;;11.85;83.85
38716;BME280;24833;49.324;8.694;2022-11-15T10:27:14;99265.66;;;11.88;84.10
38716;BME280;24833;49.324;8.694;2022-11-15T10:29:48;99263.38;;;11.91;84.18
38716;BME280;24833;49.324;8.694;2022-11-15T10:32:18;99255.72;;;11.95;84.10
38716;BME280;24833;49.324;8.694;2022-11-15T10:34:48;99251.00;;;11.97;84.22
38716;BME280;24833;49.324;8.694;2022-11-15T10:37:28;99246.00;;;12.00;84.82
38716;BME280;24833;49.324;8.694;2022-11-15T10:42:30;99237.75;;;12.02;84.15
38716;BME280;24833;49.324;8.694;2022-11-15T10:44:57;99242.88;;;12.04;84.01
38716;BME280;24833;49.324;8.694;2022-11-15T10:47:31;99242.22;;;12.08;84.75
38716;BME280;24833;49.324;8.694;2022-11-15T10:50:31;99245.09;;;12.13;84.69
38716;BME280;24833;49.324;8.694;2022-11-15T10:53:00;99236.59;;;12.16;84.80
38716;BME280;24833;49.324;8.694;2022-11-15T10:55:31;99240.25;;;12.22;84.78
38716;BME280;24833;49.324;8.694;2022-11-15T10:58:19;99243.94;;;12.27;85.45
38716;BME280;24833;49.324;8.694;2022-11-15T11:00:47;99243.06;;;12.34;85.19
38716;BME280;24833;49.324;8.694;2022-11-15T11:04:04;99231.06;;;12.36;84.73
38716;BME280;24833;49.324;8.694;2022-11-15T11:06:54;99229.38;;;12.42;84.70
38716;BME280;24833;49.324;8.694;2022-11-15T11:12:01;99223.94;;;12.48;84.31
38716;BME280;24833;49.324;8.694;2022-11-15T11:14:34;99215.50;;;12.51;84.47
38716;BME280;24833;49.324;8.694;2022-11-15T11:17:04;99213.63;;;12.52;84.02
38716;BME280;24833;49.324;8.694;2022-11-15T11:25:40;99202.63;;;12.60;84.31
38716;BME280;24833;49.324;8.694;2022-11-15T11:32:22;99187.22;;;12.74;85.08
38716;BME280;24833;49.324;8.694;2022-11-15T11:41:04;99171.94;;;12.93;84.27
38716;BME280;24833;49.324;8.694;2022-11-15T11:46:55;99162.28;;;13.03;84.55
38716;BME280;24833;49.324;8.694;2022-11-15T11:49:37;99155.44;;;13.07;84.77
38716;BME280;24833;49.324;8.694;2022-11-15T11:52:27;99148.59;;;13.12;84.49
38716;BME280;24833;49.324;8.694;2022-11-15T12:00:23;99122.13;;;13.15;83.93
38716;BME280;24833;49.324;8.694;2022-11-15T12:05:50;99120.13;;;13.10;83.00
38716;BME280;24833;49.324;8.694;2022-11-15T12:14:11;99113.84;;;13.05;83.11
38716;BME280;24833;49.324;8.694;2022-11-15T12:16:42;99112.41;;;13.02;83.05
38716;BME280;24833;49.324;8.694;2022-11-15T12:19:09;99112.88;;;12.99;82.28
38716;BME280;24833;49.324;8.694;2022-11-15T12:22:10;99116.81;;;12.97;82.76
38716;BME280;24833;49.324;8.694;2022-11-15T12:24:59;99097.47;;;12.95;82.80
38716;BME280;24833;49.324;8.694;2022-11-15T12:27:44;99098.53;;;12.94;83.04
38716;BME280;24833;49.324;8.694;2022-11-15T12:30:18;99095.28;;;12.92;82.88
38716;BME280;24833;49.324;8.694;2022-11-15T12:32:59;99084.56;;;12.92;83.05
38716;BME280;24833;49.324;8.694;2022-11-15T12:35:41;99078.59;;;12.90;82.91
38716;BME280;24833;49.324;8.694;2022-11-15T12:38:12;99080.44;;;12.89;83.34
38716;BME280;24833;49.324;8.694;2022-11-15T12:41:16;99073.56;;;12.81;82.86
38716;BME280;24833;49.324;8.694;2022-11-15T12:43:46;99067.59;;;12.79;83.41
38716;BME280;24833;49.324;8.694;2022-11-15T12:49:07;99051.25;;;12.69;82.71
38716;BME280;24833;49.324;8.694;2022-11-15T13:00:02;99033.88;;;12.60;83.32
38716;BME280;24833;49.324;8.694;2022-11-15T13:02:42;99044.00;;;12.58;83.24
38716;BME280;24833;49.324;8.694;2022-11-15T13:10:30;99025.84;;;12.60;83.32
38716;BME280;24833;49.324;8.694;2022-11-15T13:13:03;99017.34;;;12.63;83.57
38716;BME280;24833;49.324;8.694;2022-11-15T13:15:34;99017.13;;;12.65;83.46
38716;BME280;24833;49.324;8.694;2022-11-15T13:20:55;99015.59;;;12.69;83.61
38716;BME280;24833;49.324;8.694;2022-11-15T13:23:28;99018.66;;;12.72;83.30
38716;BME280;24833;49.324;8.694;2022-11-15T13:26:13;99013.88;;;12.74;83.43
38716;BME280;24833;49.324;8.694;2022-11-15T13:28:49;99012.59;;;12.77;83.35
38716;BME280;24833;49.324;8.694;2022-11-15T13:31:36;99008.66;;;12.79;83.14
38716;BME280;24833;49.324;8.694;2022-11-15T13:34:30;99009.25;;;12.81;83.43
38716;BME280;24833;49.324;8.694;2022-11-15T13:39:49;98995.16;;;12.86;83.17
38716;BME280;24833;49.324;8.694;2022-11-15T13:42:18;98992.25;;;12.88;83.67
38716;BME280;24833;49.324;8.694;2022-11-15T13:45:01;98997.16;;;12.91;83.26
38716;BME280;24833;49.324;8.694;2022-11-15T13:47:30;98980.84;;;12.92;83.13
38716;BME280;24833;49.324;8.694;2022-11-15T13:49:59;98983.28;;;12.94;83.23
38716;BME280;24833;49.324;8.694;2022-11-15T13:52:35;98976.44;;;12.98;83.10
38716;BME280;24833;49.324;8.694;2022-11-15T13:55:20;98968.16;;;12.99;83.26
38716;BME280;24833;49.324;8.694;2022-11-15T13:58:00;98974.69;;;13.03;82.82
38716;BME280;24833;49.324;8.694;2022-11-15T14:00:44;98967.25;;;13.05;83.22
38716;BME280;24833;49.324;8.694;2022-11-15T14:06:23;98955.13;;;13.15;82.89
38716;BME280;24833;49.324;8.694;2022-11-15T14:11:35;98950.13;;;13.18;82.88
38716;BME280;24833;49.324;8.694;2022-11-15T14:16:42;98950.13;;;13.18;83.11
38716;BME280;24833;49.324;8.694;2022-11-15T14:24:43;98936.59;;;13.13;82.63
38716;BME280;24833;49.324;8.694;2022-11-15T14:29:47;98931.91;;;13.08;82.98
38716;BME280;24833;49.324;8.694;2022-11-15T14:34:53;98920.84;;;13.05;82.97
38716;BME280;24833;49.324;8.694;2022-11-15T14:37:31;98914.91;;;13.03;82.67
38716;BME280;24833;49.324;8.694;2022-11-15T14:40:06;98915.94;;;13.02;82.96
38716;BME280;24833;49.324;8.694;2022-11-15T14:42:36;98906.53;;;12.99;82.52
38716;BME280;24833;49.324;8.694;2022-11-15T14:45:14;98916.66;;;12.97;82.64
38716;BME280;24833;49.324;8.694;2022-11-15T14:47:42;98897.53;;;12.94;82.69
38716;BME280;24833;49.324;8.694;2022-11-15T14:50:19;98898.59;;;12.93;82.56
38716;BME280;24833;49.324;8.694;2022-11-15T14:52:48;98896.97;;;12.92;82.77
38716;BME280;24833;49.324;8.694;2022-11-15T14:55:30;98887.50;;;12.89;82.18
38716;BME280;24833;49.324;8.694;2022-11-15T14:58:04;98883.19;;;12.88;82.46
38716;BME280;24833;49.324;8.694;2022-11-15T15:00:39;98877.28;;;12.86;82.26
38716;BME280;24833;49.324;8.694;2022-11-15T15:03:07;98878.09;;;12.87;82.50
38716;BME280;24833;49.324;8.694;2022-11-15T15:05:43;98877.50;;;12.85;82.61
38716;BME280;24833;49.324;8.694;2022-11-15T15:08:10;98869.69;;;12.83;82.40
38716;BME280;24833;49.324;8.694;2022-11-15T15:10:43;98852.78;;;12.82;82.30
38716;BME280;24833;49.324;8.694;2022-11-15T15:13:23;98834.84;;;12.83;82.34
38716;BME280;24833;49.324;8.694;2022-11-15T15:15:51;98828.69;;;12.82;82.53
38716;BME280;24833;49.324;8.694;2022-11-15T15:18:19;98827.28;;;12.80;82.44
38716;BME280;24833;49.324;8.694;2022-11-15T15:20:57;98824.84;;;12.78;81.99
38716;BME280;24833;49.324;8.694;2022-11-15T15:23:29;98829.41;;;12.78;81.91
38716;BME280;24833;49.324;8.694;2022-11-15T15:25:57;98834.97;;;12.76;81.82
38716;BME280;24833;49.324;8.694;2022-11-15T15:28:25;98826.13;;;12.76;81.80
38716;BME280;24833;49.324;8.694;2022-11-15T15:30:59;98834.16;;;12.76;81.75
38716;BME280;24833;49.324;8.694;2022-11-15T15:33:26;98834.97;;;12.76;82.07
38716;BME280;24833;49.324;8.694;2022-11-15T15:35:53;98832.06;;;12.78;81.89
38716;BME280;24833;49.324;8.694;2022-11-15T15:38:20;98848.97;;;12.78;81.50
38716;BME280;24833;49.324;8.694;2022-11-15T15:40:48;98835.78;;;12.77;81.41
38716;BME280;24833;49.324;8.694;2022-11-15T15:43:17;98841.97;;;12.77;81.79
38716;BME280;24833;49.324;8.694;2022-11-15T15:45:45;98825.91;;;12.77;81.45
38716;BME280;24833;49.324;8.694;2022-11-15T15:48:16;98829.16;;;12.79;81.57
38716;BME280;24833;49.324;8.694;2022-11-15T15:50:43;98827.88;;;12.82;81.67
38716;BME280;24833;49.324;8.694;2022-11-15T15:53:12;98819.59;;;12.83;81.79
38716;BME280;24833;49.324;8.694;2022-11-15T15:55:39;98809.72;;;12.84;81.47
38716;BME280;24833;49.324;8.694;2022-11-15T15:58:06;98813.22;;;12.85;81.02
38716;BME280;24833;49.324;8.694;2022-11-15T16:00:35;98800.63;;;12.85;81.09
38716;BME280;24833;49.324;8.694;2022-11-15T16:03:03;98799.31;;;12.88;81.29
38716;BME280;24833;49.324;8.694;2022-11-15T16:05:30;98786.97;;;12.87;81.42
38716;BME280;24833;49.324;8.694;2022-11-15T16:07:57;98783.25;;;12.88;81.00
38716;BME280;24833;49.324;8.694;2022-11-15T16:10:32;98788.59;;;12.88;81.06
38716;BME280;24833;49.324;8.694;2022-11-15T16:13:03;98791.03;;;12.89;81.18
38716;BME280;24833;49.324;8.694;2022-11-15T16:15:31;98787.56;;;12.89;81.36
38716;BME280;24833;49.324;8.694;2022-11-15T16:18:00;98781.94;;;12.90;81.55